sensor_id;sensor_type;location;lat;lon;timestamp;pressure;altitude;pressure_sealevel;temperature;humidity
56074;BME280;41950;55.840;37.442;2023-05-12T00:01:10;100268.00;;;9.48;78.28
56074;BME280;41950;55.840;37.442;2023-05-12T00:03:37;100249.06;;;9.37;78.74
56074;BME280;41950;55.840;37.442;2023-05-12T00:06:03;100247.34;;;9.30;78.76
56074;BME280;41950;55.840;37.442;2023-05-12T00:08:29;100227.53;;;9.14;78.88
56074;BME280;41950;55.840;37.442;2023-05-12T00:10:56;100270.66;;;9.36;78.67
56074;BME280;41950;55.840;37.442;2023-05-12T00:13:22;100224.13;;;9.09;78.86
56074;BME280;41950;55.840;37.442;2023-05-12T00:15:49;100266.34;;;9.29;78.94
56074;BME280;41950;55.840;37.442;2023-05-12T00:18:16;100256.88;;;9.17;79.34
56074;BME280;41950;55.840;37.442;2023-05-12T00:20:42;100256.03;;;9.17;79.50
56074;BME280;41950;55.840;37.442;2023-05-12T00:23:07;100259.47;;;9.14;79.52
56074;BME280;41950;55.840;37.442;2023-05-12T00:25:33;100243.09;;;9.00;79.40
56074;BME280;41950;55.840;37.442;2023-05-12T00:27:59;100256.06;;;9.05;79.83
56074;BME280;41950;55.840;37.442;2023-05-12T00:30:25;100263.81;;;9.08;79.69
56074;BME280;41950;55.840;37.442;2023-05-12T00:32:51;100261.22;;;9.06;79.73
56074;BME280;41950;55.840;37.442;2023-05-12T00:35:17;100262.97;;;9.04;79.66
56074;BME280;41950;55.840;37.442;2023-05-12T00:37:43;100254.31;;;8.97;79.88
56074;BME280;41950;55.840;37.442;2023-05-12T00:40:09;100243.13;;;8.86;79.83
56074;BME280;41950;55.840;37.442;2023-05-12T00:42:35;100235.38;;;8.79;80.13
56074;BME280;41950;55.840;37.442;2023-05-12T00:45:01;100261.22;;;8.94;79.97
56074;BME280;41950;55.840;37.442;2023-05-12T00:47:31;100259.50;;;8.91;79.94
56074;BME280;41950;55.840;37.442;2023-05-12T00:49:57;100265.56;;;8.87;80.20
56074;BME280;41950;55.840;37.442;2023-05-12T00:52:23;100243.13;;;8.74;80.36
56074;BME280;41950;55.840;37.442;2023-05-12T00:54:49;100254.38;;;8.81;80.36
56074;BME280;41950;55.840;37.442;2023-05-12T00:57:15;100239.69;;;8.74;80.54
56074;BME280;41950;55.840;37.442;2023-05-12T00:59:41;100237.97;;;8.66;80.62
56074;BME280;41950;55.840;37.442;2023-05-12T01:02:07;100242.28;;;8.69;80.81
56074;BME280;41950;55.840;37.442;2023-05-12T01:04:34;100258.69;;;8.77;81.25
56074;BME280;41950;55.840;37.442;2023-05-12T01:07:03;100255.22;;;8.72;81.59
56074;BME280;41950;55.840;37.442;2023-05-12T01:09:31;100248.34;;;8.59;81.64
56074;BME280;41950;55.840;37.442;2023-05-12T01:11:57;100229.38;;;8.51;82.11
56074;BME280;41950;55.840;37.442;2023-05-12T01:14:23;100256.94;;;8.67;82.09
56074;BME280;41950;55.840;37.442;2023-05-12T01:16:52;100249.19;;;8.65;82.42
56074;BME280;41950;55.840;37.442;2023-05-12T01:19:40;100258.66;;;8.66;82.53
56074;BME280;41950;55.840;37.442;2023-05-12T01:22:08;100250.06;;;8.60;82.82
56074;BME280;41950;55.840;37.442;2023-05-12T01:24:44;100241.44;;;8.58;82.70
56074;BME280;41950;55.840;37.442;2023-05-12T01:27:11;100218.13;;;8.44;82.96
56074;BME280;41950;55.840;37.442;2023-05-12T01:29:37;100238.00;;;8.54;82.72
56074;BME280;41950;55.840;37.442;2023-05-12T01:32:04;100211.25;;;8.40;82.77
56074;BME280;41950;55.840;37.442;2023-05-12T01:34:32;100233.66;;;8.47;83.13
56074;BME280;41950;55.840;37.442;2023-05-12T01:36:58;100250.91;;;8.59;83.34
56074;BME280;41950;55.840;37.442;2023-05-12T01:39:23;100203.47;;;8.29;83.62
56074;BME280;41950;55.840;37.442;2023-05-12T01:41:49;100206.03;;;8.31;83.45
56074;BME280;41950;55.840;37.442;2023-05-12T01:44:15;100230.19;;;8.45;83.40
56074;BME280;41950;55.840;37.442;2023-05-12T01:46:41;100229.34;;;8.40;83.78
56074;BME280;41950;55.840;37.442;2023-05-12T01:49:06;100223.31;;;8.38;83.50
56074;BME280;41950;55.840;37.442;2023-05-12T01:51:32;100249.16;;;8.47;83.69
56074;BME280;41950;55.840;37.442;2023-05-12T01:53:58;100208.63;;;8.29;83.65
56074;BME280;41950;55.840;37.442;2023-05-12T01:56:23;100218.13;;;8.40;83.64
56074;BME280;41950;55.840;37.442;2023-05-12T01:58:49;100238.81;;;8.47;83.64
56074;BME280;41950;55.840;37.442;2023-05-12T02:01:15;100219.88;;;8.39;83.93
56074;BME280;41950;55.840;37.442;2023-05-12T02:03:40;100238.81;;;8.47;84.07
56074;BME280;41950;55.840;37.442;2023-05-12T02:06:06;100221.59;;;8.40;83.75
56074;BME280;41950;55.840;37.442;2023-05-12T02:08:32;100262.13;;;8.61;83.73
56074;BME280;41950;55.840;37.442;2023-05-12T02:11:07;100169.81;;;8.16;83.44
56074;BME280;41950;55.840;37.442;2023-05-12T02:13:34;100226.75;;;8.43;83.47
56074;BME280;41950;55.840;37.442;2023-05-12T02:16:00;100260.41;;;8.66;83.52
56074;BME280;41950;55.840;37.442;2023-05-12T02:18:26;100240.56;;;8.56;83.60
56074;BME280;41950;55.840;37.442;2023-05-12T02:21:12;100214.69;;;8.44;83.40
56074;BME280;41950;55.840;37.442;2023-05-12T02:23:37;100244.88;;;8.64;83.23
56074;BME280;41950;55.840;37.442;2023-05-12T02:26:03;100247.47;;;8.67;82.79
56074;BME280;41950;55.840;37.442;2023-05-12T02:28:28;100229.34;;;8.60;82.69
56074;BME280;41950;55.840;37.442;2023-05-12T02:30:54;100260.41;;;8.78;82.24
56074;BME280;41950;55.840;37.442;2023-05-12T02:33:20;100231.94;;;8.66;81.98
56074;BME280;41950;55.840;37.442;2023-05-12T02:35:47;100250.91;;;8.85;82.02
56074;BME280;41950;55.840;37.442;2023-05-12T02:38:13;100239.69;;;8.75;81.80
56074;BME280;41950;55.840;37.442;2023-05-12T02:40:39;100266.41;;;8.95;81.72
56074;BME280;41950;55.840;37.442;2023-05-12T02:43:04;100248.28;;;8.91;80.91
56074;BME280;41950;55.840;37.442;2023-05-12T02:45:30;100253.44;;;9.11;80.60
56074;BME280;41950;55.840;37.442;2023-05-12T02:47:56;100256.00;;;9.18;80.29
56074;BME280;41950;55.840;37.442;2023-05-12T02:50:22;100242.19;;;9.18;79.41
56074;BME280;41950;55.840;37.442;2023-05-12T02:52:48;100260.31;;;9.35;78.66
56074;BME280;41950;55.840;37.442;2023-05-12T02:55:14;100232.63;;;9.41;77.93
56074;BME280;41950;55.840;37.442;2023-05-12T02:57:40;100255.88;;;9.61;77.71
56074;BME280;41950;55.840;37.442;2023-05-12T03:00:06;100269.63;;;9.74;77.08
56074;BME280;41950;55.840;37.442;2023-05-12T03:02:36;100263.53;;;9.84;76.63
56074;BME280;41950;55.840;37.442;2023-05-12T03:05:03;100240.28;;;9.73;75.70
56074;BME280;41950;55.840;37.442;2023-05-12T03:07:29;100232.53;;;9.69;74.89
56074;BME280;41950;55.840;37.442;2023-05-12T03:09:55;100267.81;;;9.94;74.94
56074;BME280;41950;55.840;37.442;2023-05-12T03:12:21;100229.91;;;9.72;75.09
56074;BME280;41950;55.840;37.442;2023-05-12T03:14:47;100246.25;;;9.83;75.00
56074;BME280;41950;55.840;37.442;2023-05-12T03:17:13;100250.56;;;9.84;74.46
56074;BME280;41950;55.840;37.442;2023-05-12T03:19:38;100246.22;;;9.86;73.95
56074;BME280;41950;55.840;37.442;2023-05-12T03:22:04;100274.69;;;10.00;73.42
56074;BME280;41950;55.840;37.442;2023-05-12T03:24:32;100198.84;;;9.67;72.99
56074;BME280;41950;55.840;37.442;2023-05-12T03:26:57;100227.25;;;9.87;73.12
56074;BME280;41950;55.840;37.442;2023-05-12T03:29:23;100235.75;;;10.07;72.80
56074;BME280;41950;55.840;37.442;2023-05-12T03:31:49;100240.91;;;10.16;72.46
56074;BME280;41950;55.840;37.442;2023-05-12T03:34:15;100264.06;;;10.45;72.22
56074;BME280;41950;55.840;37.442;2023-05-12T03:36:40;100267.38;;;10.63;71.59
56074;BME280;41950;55.840;37.442;2023-05-12T03:39:07;100254.38;;;10.66;71.49
56074;BME280;41950;55.840;37.442;2023-05-12T03:41:34;100240.59;;;10.58;71.30
56074;BME280;41950;55.840;37.442;2023-05-12T03:44:00;100241.44;;;10.60;71.01
56074;BME280;41950;55.840;37.442;2023-05-12T03:46:26;100235.38;;;10.62;70.78
56074;BME280;41950;55.840;37.442;2023-05-12T03:48:52;100233.63;;;10.63;71.22
56074;BME280;41950;55.840;37.442;2023-05-12T03:51:18;100268.03;;;10.86;71.47
56074;BME280;41950;55.840;37.442;2023-05-12T03:53:43;100257.72;;;10.81;71.13
56074;BME280;41950;55.840;37.442;2023-05-12T03:56:12;100274.94;;;10.89;71.58
56074;BME280;41950;55.840;37.442;2023-05-12T03:58:40;100263.63;;;10.94;71.22
56074;BME280;41950;55.840;37.442;2023-05-12T04:01:05;100268.81;;;10.94;71.21
56074;BME280;41950;55.840;37.442;2023-05-12T04:03:31;100230.94;;;10.75;71.10
56074;BME280;41950;55.840;37.442;2023-05-12T04:05:58;100245.44;;;10.99;71.61
56074;BME280;41950;55.840;37.442;2023-05-12T04:08:25;100232.41;;;11.03;70.65
56074;BME280;41950;55.840;37.442;2023-05-12T04:10:57;100249.50;;;11.21;70.94
56074;BME280;41950;55.840;37.442;2023-05-12T04:13:23;100221.22;;;10.97;70.61
56074;BME280;41950;55.840;37.442;2023-05-12T04:15:49;100243.50;;;11.16;70.75
56074;BME280;41950;55.840;37.442;2023-05-12T04:18:16;100227.06;;;11.15;70.24
56074;BME280;41950;55.840;37.442;2023-05-12T04:20:42;100236.56;;;11.18;68.95
56074;BME280;41950;55.840;37.442;2023-05-12T04:23:09;100217.69;;;11.02;68.86
56074;BME280;41950;55.840;37.442;2023-05-12T04:25:41;100240.84;;;11.21;69.71
56074;BME280;41950;55.840;37.442;2023-05-12T04:28:08;100251.22;;;11.22;70.02
56074;BME280;41950;55.840;37.442;2023-05-12T04:30:34;100217.75;;;10.95;69.38
56074;BME280;41950;55.840;37.442;2023-05-12T04:33:00;100247.91;;;11.11;69.52
56074;BME280;41950;55.840;37.442;2023-05-12T04:35:26;100254.78;;;11.13;69.37
56074;BME280;41950;55.840;37.442;2023-05-12T04:37:52;100247.00;;;11.12;69.14
56074;BME280;41950;55.840;37.442;2023-05-12T04:40:18;100256.44;;;11.24;68.90
56074;BME280;41950;55.840;37.442;2023-05-12T04:42:44;100224.47;;;11.14;68.51
56074;BME280;41950;55.840;37.442;2023-05-12T04:45:10;100254.47;;;11.42;68.43
56074;BME280;41950;55.840;37.442;2023-05-12T04:47:36;100230.25;;;11.39;67.61
56074;BME280;41950;55.840;37.442;2023-05-12T04:50:02;100255.94;;;11.65;66.80
56074;BME280;41950;55.840;37.442;2023-05-12T04:52:30;100251.47;;;11.74;66.10
56074;BME280;41950;55.840;37.442;2023-05-12T04:54:55;100229.84;;;11.72;66.46
56074;BME280;41950;55.840;37.442;2023-05-12T04:57:21;100222.00;;;11.80;65.43
56074;BME280;41950;55.840;37.442;2023-05-12T04:59:47;100238.13;;;12.02;65.02
56074;BME280;41950;55.840;37.442;2023-05-12T05:02:15;100215.63;;;11.99;64.06
56074;BME280;41950;55.840;37.442;2023-05-12T05:04:41;100220.63;;;12.13;63.71
56074;BME280;41950;55.840;37.442;2023-05-12T05:07:07;100230.78;;;12.28;62.45
56074;BME280;41950;55.840;37.442;2023-05-12T05:09:33;100240.03;;;12.49;61.88
56074;BME280;41950;55.840;37.442;2023-05-12T05:11:58;100235.66;;;12.51;61.13
56074;BME280;41950;55.840;37.442;2023-05-12T05:14:24;100240.69;;;12.62;60.82
56074;BME280;41950;55.840;37.442;2023-05-12T05:16:50;100255.16;;;12.78;59.19
56074;BME280;41950;55.840;37.442;2023-05-12T05:19:16;100157.91;;;12.30;58.83
56074;BME280;41950;55.840;37.442;2023-05-12T05:21:41;100246.94;;;13.01;58.36
56074;BME280;41950;55.840;37.442;2023-05-12T05:24:07;100250.22;;;13.11;57.85
56074;BME280;41950;55.840;37.442;2023-05-12T05:26:33;100248.31;;;13.23;57.02
56074;BME280;41950;55.840;37.442;2023-05-12T05:28:59;100242.00;;;13.34;56.81
56074;BME280;41950;55.840;37.442;2023-05-12T05:31:25;100221.16;;;13.34;56.87
56074;BME280;41950;55.840;37.442;2023-05-12T05:33:55;100233.84;;;13.52;56.46
56074;BME280;41950;55.840;37.442;2023-05-12T05:36:21;100193.31;;;13.36;56.13
56074;BME280;41950;55.840;37.442;2023-05-12T05:38:47;100244.66;;;13.75;55.54
56074;BME280;41950;55.840;37.442;2023-05-12T05:41:13;100186.94;;;13.50;55.47
56074;BME280;41950;55.840;37.442;2023-05-12T05:43:39;100190.84;;;13.71;54.71
56074;BME280;41950;55.840;37.442;2023-05-12T05:46:04;100185.53;;;13.74;54.32
56074;BME280;41950;55.840;37.442;2023-05-12T05:48:31;100244.63;;;14.15;53.43
56074;BME280;41950;55.840;37.442;2023-05-12T05:50:56;100238.31;;;14.24;53.39
56074;BME280;41950;55.840;37.442;2023-05-12T05:53:22;100202.84;;;14.15;52.06
56074;BME280;41950;55.840;37.442;2023-05-12T05:55:48;100235.06;;;14.53;52.26
56074;BME280;41950;55.840;37.442;2023-05-12T05:58:14;100222.88;;;14.53;51.76
56074;BME280;41950;55.840;37.442;2023-05-12T06:00:40;100225.03;;;14.70;52.10
56074;BME280;41950;55.840;37.442;2023-05-12T06:03:07;100210.19;;;14.72;51.05
56074;BME280;41950;55.840;37.442;2023-05-12T06:05:33;100223.59;;;14.93;49.94
56074;BME280;41950;55.840;37.442;2023-05-12T06:07:59;100205.34;;;14.91;49.51
56074;BME280;41950;55.840;37.442;2023-05-12T06:10:24;100230.66;;;15.22;48.83
56074;BME280;41950;55.840;37.442;2023-05-12T06:12:50;100228.53;;;15.36;49.16
56074;BME280;41950;55.840;37.442;2023-05-12T06:15:17;100193.78;;;15.31;48.93
56074;BME280;41950;55.840;37.442;2023-05-12T06:17:43;100227.03;;;15.58;48.75
56074;BME280;41950;55.840;37.442;2023-05-12T06:20:09;100209.56;;;15.59;48.13
56074;BME280;41950;55.840;37.442;2023-05-12T06:22:35;100231.59;;;15.81;48.13
56074;BME280;41950;55.840;37.442;2023-05-12T06:25:01;100226.97;;;15.91;47.74
56074;BME280;41950;55.840;37.442;2023-05-12T06:27:30;100227.53;;;16.00;46.02
56074;BME280;41950;55.840;37.442;2023-05-12T06:29:58;100213.38;;;16.06;41.73
56074;BME280;41950;55.840;37.442;2023-05-12T06:32:24;100179.44;;;16.03;41.21
56074;BME280;41950;55.840;37.442;2023-05-12T06:34:49;100214.91;;;16.39;40.61
56074;BME280;41950;55.840;37.442;2023-05-12T06:37:15;100227.47;;;16.56;40.51
56074;BME280;41950;55.840;37.442;2023-05-12T06:39:41;100216.03;;;16.59;41.40
56074;BME280;41950;55.840;37.442;2023-05-12T06:42:06;100210.75;;;16.60;39.98
56074;BME280;41950;55.840;37.442;2023-05-12T06:44:32;100189.81;;;16.59;39.22
56074;BME280;41950;55.840;37.442;2023-05-12T06:46:58;100164.00;;;16.48;38.42
56074;BME280;41950;55.840;37.442;2023-05-12T06:49:24;100198.53;;;16.86;37.21
56074;BME280;41950;55.840;37.442;2023-05-12T06:51:49;100192.22;;;16.91;35.81
56074;BME280;41950;55.840;37.442;2023-05-12T06:54:15;100193.47;;;17.06;34.24
56074;BME280;41950;55.840;37.442;2023-05-12T06:56:41;100219.13;;;17.21;34.49
56074;BME280;41950;55.840;37.442;2023-05-12T06:59:07;100184.50;;;17.12;33.76
56074;BME280;41950;55.840;37.442;2023-05-12T07:01:32;100216.75;;;17.39;34.88
56074;BME280;41950;55.840;37.442;2023-05-12T07:03:59;100211.09;;;17.49;34.77
56074;BME280;41950;55.840;37.442;2023-05-12T07:06:25;100213.41;;;17.58;34.70
56074;BME280;41950;55.840;37.442;2023-05-12T07:08:53;100179.78;;;17.45;34.21
56074;BME280;41950;55.840;37.442;2023-05-12T07:11:19;100200.75;;;17.70;32.22
56074;BME280;41950;55.840;37.442;2023-05-12T07:13:46;100210.09;;;17.77;31.74
56074;BME280;41950;55.840;37.442;2023-05-12T07:16:12;100206.97;;;17.90;31.82
56074;BME280;41950;55.840;37.442;2023-05-12T07:18:42;100217.16;;;17.98;33.26
56074;BME280;41950;55.840;37.442;2023-05-12T07:21:08;100197.19;;;17.94;33.04
56074;BME280;41950;55.840;37.442;2023-05-12T07:23:35;100210.66;;;18.08;31.45
56074;BME280;41950;55.840;37.442;2023-05-12T07:26:05;100197.31;;;18.13;29.66
56074;BME280;41950;55.840;37.442;2023-05-12T07:28:33;100184.25;;;18.11;30.33
56074;BME280;41950;55.840;37.442;2023-05-12T07:31:03;100190.78;;;18.23;29.66
56074;BME280;41950;55.840;37.442;2023-05-12T07:33:29;100210.31;;;18.38;29.72
56074;BME280;41950;55.840;37.442;2023-05-12T07:35:55;100195.56;;;18.34;30.72
56074;BME280;41950;55.840;37.442;2023-05-12T07:38:21;100185.97;;;18.33;29.58
56074;BME280;41950;55.840;37.442;2023-05-12T07:40:48;100208.03;;;18.50;29.15
56074;BME280;41950;55.840;37.442;2023-05-12T07:43:14;100174.53;;;18.35;28.70
56074;BME280;41950;55.840;37.442;2023-05-12T07:45:42;100169.84;;;18.42;29.06
56074;BME280;41950;55.840;37.442;2023-05-12T07:48:09;100177.09;;;18.57;29.54
56074;BME280;41950;55.840;37.442;2023-05-12T07:50:38;100198.03;;;18.80;29.10
56074;BME280;41950;55.840;37.442;2023-05-12T07:53:04;100188.16;;;18.86;28.14
56074;BME280;41950;55.840;37.442;2023-05-12T07:55:30;100194.75;;;18.96;29.19
56074;BME280;41950;55.840;37.442;2023-05-12T07:57:58;100195.91;;;19.09;27.78
56074;BME280;41950;55.840;37.442;2023-05-12T08:00:24;100161.63;;;18.92;28.12
56074;BME280;41950;55.840;37.442;2023-05-12T08:02:49;100208.13;;;19.30;28.73
56074;BME280;41950;55.840;37.442;2023-05-12T08:05:15;100179.25;;;19.29;27.68
56074;BME280;41950;55.840;37.442;2023-05-12T08:07:41;100188.22;;;19.43;25.87
56074;BME280;41950;55.840;37.442;2023-05-12T08:10:11;100182.09;;;19.43;25.49
56074;BME280;41950;55.840;37.442;2023-05-12T08:12:39;100184.31;;;19.52;26.60
56074;BME280;41950;55.840;37.442;2023-05-12T08:15:06;100200.44;;;19.84;26.57
56074;BME280;41950;55.840;37.442;2023-05-12T08:17:33;100146.06;;;19.64;25.66
56074;BME280;41950;55.840;37.442;2023-05-12T08:20:01;100190.00;;;19.99;25.86
56074;BME280;41950;55.840;37.442;2023-05-12T08:22:31;100181.22;;;20.18;27.13
56074;BME280;41950;55.840;37.442;2023-05-12T08:24:57;100185.59;;;20.36;26.74
56074;BME280;41950;55.840;37.442;2023-05-12T08:27:23;100188.94;;;20.40;24.91
56074;BME280;41950;55.840;37.442;2023-05-12T08:29:48;100163.31;;;20.43;25.50
56074;BME280;41950;55.840;37.442;2023-05-12T08:32:14;100186.19;;;20.77;25.11
56074;BME280;41950;55.840;37.442;2023-05-12T08:34:40;100179.38;;;21.06;26.27
56074;BME280;41950;55.840;37.442;2023-05-12T08:37:06;100169.94;;;21.35;26.38
56074;BME280;41950;55.840;37.442;2023-05-12T08:39:32;100149.25;;;21.27;24.77
56074;BME280;41950;55.840;37.442;2023-05-12T08:44:35;100147.00;;;21.53;24.60
56074;BME280;41950;55.840;37.442;2023-05-12T08:47:03;100156.91;;;21.65;24.67
56074;BME280;41950;55.840;37.442;2023-05-12T08:49:31;100164.22;;;21.92;25.52
56074;BME280;41950;55.840;37.442;2023-05-12T08:52:00;100147.34;;;21.94;24.66
56074;BME280;41950;55.840;37.442;2023-05-12T08:54:28;100122.44;;;21.82;24.72
56074;BME280;41950;55.840;37.442;2023-05-12T08:56:55;100137.25;;;22.01;24.35
56074;BME280;41950;55.840;37.442;2023-05-12T08:59:22;100160.81;;;22.21;24.86
56074;BME280;41950;55.840;37.442;2023-05-12T09:01:49;100155.56;;;22.35;25.76
56074;BME280;41950;55.840;37.442;2023-05-12T09:04:15;100135.88;;;22.25;24.39
56074;BME280;41950;55.840;37.442;2023-05-12T09:06:42;100142.31;;;22.35;23.18
56074;BME280;41950;55.840;37.442;2023-05-12T09:09:09;100103.41;;;22.07;23.75
56074;BME280;41950;55.840;37.442;2023-05-12T09:11:37;100145.72;;;22.37;24.43
56074;BME280;41950;55.840;37.442;2023-05-12T09:14:10;100153.94;;;22.33;24.21
56074;BME280;41950;55.840;37.442;2023-05-12T09:16:39;100152.94;;;21.88;24.27
56074;BME280;41950;55.840;37.442;2023-05-12T09:19:06;100138.28;;;21.51;24.42
56074;BME280;41950;55.840;37.442;2023-05-12T09:21:31;100135.47;;;21.05;25.06
56074;BME280;41950;55.840;37.442;2023-05-12T09:24:00;100132.97;;;20.86;26.23
56074;BME280;41950;55.840;37.442;2023-05-12T09:26:31;100144.53;;;20.84;26.27
56074;BME280;41950;55.840;37.442;2023-05-12T09:29:05;100151.78;;;20.96;25.64
56074;BME280;41950;55.840;37.442;2023-05-12T09:31:31;100142.66;;;21.19;25.77
56074;BME280;41950;55.840;37.442;2023-05-12T09:33:57;100127.47;;;21.55;25.70
56074;BME280;41950;55.840;37.442;2023-05-12T09:36:24;100103.53;;;21.74;24.46
56074;BME280;41950;55.840;37.442;2023-05-12T09:39:01;100135.53;;;22.31;25.11
56074;BME280;41950;55.840;37.442;2023-05-12T09:41:30;100139.38;;;22.70;25.44
56074;BME280;41950;55.840;37.442;2023-05-12T09:43:58;100119.78;;;22.88;23.98
56074;BME280;41950;55.840;37.442;2023-05-12T09:46:24;100117.25;;;22.71;24.14
56074;BME280;41950;55.840;37.442;2023-05-12T09:48:50;100093.03;;;22.34;24.00
56074;BME280;41950;55.840;37.442;2023-05-12T09:51:19;100114.41;;;22.15;23.95
56074;BME280;41950;55.840;37.442;2023-05-12T09:53:45;100083.34;;;21.73;24.37
56074;BME280;41950;55.840;37.442;2023-05-12T09:56:12;100086.06;;;21.56;24.29
56074;BME280;41950;55.840;37.442;2023-05-12T09:58:44;100084.09;;;21.28;23.86
56074;BME280;41950;55.840;37.442;2023-05-12T10:01:12;100134.38;;;21.42;23.44
56074;BME280;41950;55.840;37.442;2023-05-12T10:03:45;100128.66;;;21.34;23.28
56074;BME280;41950;55.840;37.442;2023-05-12T10:06:31;100131.56;;;21.45;23.72
56074;BME280;41950;55.840;37.442;2023-05-12T10:09:27;100126.72;;;21.69;23.42
56074;BME280;41950;55.840;37.442;2023-05-12T10:11:54;100094.16;;;22.30;23.72
56074;BME280;41950;55.840;37.442;2023-05-12T10:14:21;100107.31;;;22.90;22.19
56074;BME280;41950;55.840;37.442;2023-05-12T10:16:48;100077.06;;;23.08;21.45
56074;BME280;41950;55.840;37.442;2023-05-12T10:19:14;100128.25;;;23.50;21.45
56074;BME280;41950;55.840;37.442;2023-05-12T10:21:42;100105.22;;;23.79;22.16
56074;BME280;41950;55.840;37.442;2023-05-12T10:24:14;100129.97;;;23.92;21.55
56074;BME280;41950;55.840;37.442;2023-05-12T10:26:42;100109.47;;;23.26;21.95
56074;BME280;41950;55.840;37.442;2023-05-12T10:29:10;100101.25;;;22.88;21.19
56074;BME280;41950;55.840;37.442;2023-05-12T10:31:37;100100.31;;;22.45;21.78
56074;BME280;41950;55.840;37.442;2023-05-12T10:34:03;100101.81;;;22.35;21.95
56074;BME280;41950;55.840;37.442;2023-05-12T10:36:29;100091.22;;;22.35;21.71
56074;BME280;41950;55.840;37.442;2023-05-12T10:39:03;100083.28;;;22.79;21.09
56074;BME280;41950;55.840;37.442;2023-05-12T10:41:31;100130.00;;;23.23;21.51
56074;BME280;41950;55.840;37.442;2023-05-12T10:43:57;100117.81;;;22.62;21.15
56074;BME280;41950;55.840;37.442;2023-05-12T10:46:23;100089.88;;;21.98;21.60
56074;BME280;41950;55.840;37.442;2023-05-12T10:51:20;100105.06;;;21.63;22.65
56074;BME280;41950;55.840;37.442;2023-05-12T10:54:06;100100.25;;;22.01;22.91
56074;BME280;41950;55.840;37.442;2023-05-12T11:02:02;100116.81;;;24.70;21.40
56074;BME280;41950;55.840;37.442;2023-05-12T11:07:03;100090.97;;;25.72;19.26
56074;BME280;41950;55.840;37.442;2023-05-12T11:09:29;100093.47;;;26.57;18.79
56074;BME280;41950;55.840;37.442;2023-05-12T11:11:55;100098.72;;;26.80;17.89
56074;BME280;41950;55.840;37.442;2023-05-12T11:14:21;100077.81;;;26.87;17.23
56074;BME280;41950;55.840;37.442;2023-05-12T11:16:47;100090.28;;;27.31;17.25
56074;BME280;41950;55.840;37.442;2023-05-12T11:19:12;100100.69;;;27.46;16.57
56074;BME280;41950;55.840;37.442;2023-05-12T11:21:38;100097.28;;;27.32;16.51
56074;BME280;41950;55.840;37.442;2023-05-12T11:24:04;100099.34;;;27.51;16.44
56074;BME280;41950;55.840;37.442;2023-05-12T11:26:30;100108.34;;;27.28;16.86
56074;BME280;41950;55.840;37.442;2023-05-12T11:28:57;100093.22;;;26.48;17.46
56074;BME280;41950;55.840;37.442;2023-05-12T11:31:23;100067.88;;;25.97;17.02
56074;BME280;41950;55.840;37.442;2023-05-12T11:33:49;100086.25;;;26.00;17.66
56074;BME280;41950;55.840;37.442;2023-05-12T11:36:16;100090.72;;;25.51;18.50
56074;BME280;41950;55.840;37.442;2023-05-12T11:38:49;100088.34;;;24.98;19.49
56074;BME280;41950;55.840;37.442;2023-05-12T11:41:23;100091.19;;;24.31;20.24
56074;BME280;41950;55.840;37.442;2023-05-12T11:43:49;100085.81;;;23.79;20.34
56074;BME280;41950;55.840;37.442;2023-05-12T11:46:25;100079.72;;;23.91;20.15
56074;BME280;41950;55.840;37.442;2023-05-12T11:48:58;100089.19;;;24.08;20.37
56074;BME280;41950;55.840;37.442;2023-05-12T11:51:26;100081.97;;;24.62;19.74
56074;BME280;41950;55.840;37.442;2023-05-12T11:53:52;100056.25;;;25.13;18.99
56074;BME280;41950;55.840;37.442;2023-05-12T11:56:19;100066.31;;;25.34;18.81
56074;BME280;41950;55.840;37.442;2023-05-12T11:58:56;100083.56;;;25.15;19.51
56074;BME280;41950;55.840;37.442;2023-05-12T12:01:23;100076.38;;;24.67;18.65
56074;BME280;41950;55.840;37.442;2023-05-12T12:03:52;100079.03;;;24.14;20.21
56074;BME280;41950;55.840;37.442;2023-05-12T12:06:20;100065.69;;;24.16;19.40
56074;BME280;41950;55.840;37.442;2023-05-12T12:08:50;100073.50;;;24.70;19.35
56074;BME280;41950;55.840;37.442;2023-05-12T12:11:17;100051.94;;;25.36;18.43
56074;BME280;41950;55.840;37.442;2023-05-12T12:13:50;100073.44;;;25.94;18.75
56074;BME280;41950;55.840;37.442;2023-05-12T12:16:27;100076.88;;;26.07;18.55
56074;BME280;41950;55.840;37.442;2023-05-12T12:18:54;100039.03;;;26.03;17.95
56074;BME280;41950;55.840;37.442;2023-05-12T12:21:21;100069.50;;;26.10;18.29
56074;BME280;41950;55.840;37.442;2023-05-12T12:23:48;100061.31;;;25.90;18.97
56074;BME280;41950;55.840;37.442;2023-05-12T12:26:14;100056.81;;;25.42;19.01
56074;BME280;41950;55.840;37.442;2023-05-12T12:28:46;100027.97;;;24.50;19.70
56074;BME280;41950;55.840;37.442;2023-05-12T12:31:12;100054.94;;;24.44;19.67
56074;BME280;41950;55.840;37.442;2023-05-12T12:33:38;100052.91;;;24.48;20.53
56074;BME280;41950;55.840;37.442;2023-05-12T12:36:04;100043.72;;;24.26;20.51
56074;BME280;41950;55.840;37.442;2023-05-12T12:38:30;100041.56;;;24.06;21.85
56074;BME280;41950;55.840;37.442;2023-05-12T12:40:56;100034.03;;;24.00;21.23
56074;BME280;41950;55.840;37.442;2023-05-12T12:43:22;100031.91;;;23.92;21.04
56074;BME280;41950;55.840;37.442;2023-05-12T12:45:48;100057.69;;;24.03;21.36
56074;BME280;41950;55.840;37.442;2023-05-12T12:48:14;100045.28;;;24.03;20.13
56074;BME280;41950;55.840;37.442;2023-05-12T12:50:40;100052.19;;;23.79;20.27
56074;BME280;41950;55.840;37.442;2023-05-12T12:53:06;100049.94;;;23.46;20.88
56074;BME280;41950;55.840;37.442;2023-05-12T12:55:32;100037.06;;;23.13;20.48